createdAt,value
2022-08-10T00:02:01.437Z,100011.97
2022-08-10T00:05:06.997Z,100008.14
2022-08-10T00:08:13.291Z,100007.02
2022-08-10T00:11:22.320Z,100008.31
2022-08-10T00:14:28.545Z,100003.30
2022-08-10T00:17:34.606Z,100003.97
2022-08-10T00:20:39.691Z,100002.38
2022-08-10T00:23:45.234Z,100002.87
2022-08-10T00:27:53.035Z,100002.20
2022-08-10T00:29:58.945Z,99999.48
2022-08-10T00:33:05.652Z,99991.92
2022-08-10T00:36:12.151Z,99990.04
2022-08-10T00:39:18.299Z,99997.58
2022-08-10T00:42:24.925Z,99992.66
2022-08-10T00:45:30.838Z,99997.20
2022-08-10T00:48:36.732Z,100000.81
2022-08-10T00:51:48.741Z,99995.75
2022-08-10T00:54:51.285Z,99994.86
2022-08-10T00:57:58.540Z,99998.33
2022-08-10T01:01:04.365Z,100000.85
2022-08-10T01:04:57.607Z,99994.67
2022-08-10T01:07:49.620Z,99995.72
2022-08-10T01:12:28.619Z,99998.84
2022-08-10T01:14:39.541Z,99996.59
2022-08-10T01:18:11.942Z,100000.09
2022-08-10T01:21:58.558Z,100000.33
2022-08-10T01:25:28.092Z,99992.69
2022-08-10T01:29:01.551Z,99997.44
2022-08-10T01:32:08.904Z,99997.22
2022-08-10T01:35:27.337Z,99997.72
2022-08-10T01:38:48.827Z,99997.86
2022-08-10T01:41:57.541Z,99993.46
2022-08-10T01:45:11.217Z,99991.09
2022-08-10T01:48:34.818Z,99989.38
2022-08-10T01:51:46.328Z,99988.63
2022-08-10T01:54:52.325Z,99988.22
2022-08-10T01:57:59.039Z,99992.84
2022-08-10T02:01:05.997Z,99993.40
2022-08-10T02:04:16.227Z,99994.85
2022-08-10T02:07:24.189Z,99992.73
2022-08-10T02:10:30.780Z,99996.74
2022-08-10T02:13:37.099Z,99987.47
2022-08-10T02:16:42.436Z,99995.45
2022-08-10T02:19:48.848Z,99988.50
2022-08-10T02:22:56.677Z,99989.02
2022-08-10T02:26:03.497Z,99995.13
2022-08-10T02:29:08.925Z,99988.66
2022-08-10T02:32:18.551Z,99984.50
2022-08-10T02:35:25.945Z,99991.59
2022-08-10T02:38:59.421Z,99992.19
2022-08-10T02:45:02.709Z,99988.86
2022-08-10T02:45:30.903Z,99992.83
2022-08-10T02:48:47.583Z,99992.16
2022-08-10T02:52:06.695Z,99992.64
2022-08-10T02:55:17.568Z,99997.28
2022-08-10T02:58:24.744Z,99990.14
2022-08-10T03:01:33.443Z,99990.05
2022-08-10T03:05:01.595Z,99995.34
2022-08-10T03:08:22.164Z,99995.42
2022-08-10T03:12:36.130Z,99997.61
2022-08-10T03:14:40.413Z,99992.33
2022-08-10T03:17:57.213Z,99989.56
2022-08-10T03:20:55.265Z,99989.59
2022-08-10T03:24:01.582Z,99990.77
2022-08-10T03:27:09.599Z,99990.48
2022-08-10T03:30:28.296Z,99979.70
2022-08-10T03:33:22.580Z,99982.48
2022-08-10T03:36:40.019Z,99982.51
2022-08-10T03:39:35.194Z,99985.06
2022-08-10T03:42:42.015Z,99986.53
2022-08-10T03:45:48.554Z,99985.39
2022-08-10T03:48:55.779Z,99985.53
2022-08-10T03:52:02.077Z,99982.66
2022-08-10T03:55:08.898Z,99996.64
2022-08-10T03:58:13.520Z,99994.71
2022-08-10T04:01:19.347Z,99989.46
2022-08-10T04:04:25.821Z,99999.92
2022-08-10T04:07:31.576Z,99998.39
2022-08-10T04:10:37.683Z,99995.18
2022-08-10T04:13:42.647Z,99993.32
2022-08-10T04:16:48.372Z,100004.05
2022-08-10T04:20:02.673Z,100001.27
2022-08-10T04:23:08.043Z,100004.73
2022-08-10T04:26:13.750Z,99998.52
2022-08-10T04:29:20.839Z,99996.72
2022-08-10T04:32:25.948Z,99987.67
2022-08-10T04:35:33.375Z,100000.39
2022-08-10T04:38:38.935Z,99984.16
2022-08-10T04:41:46.187Z,99981.40
2022-08-10T04:44:53.046Z,99982.91
2022-08-10T04:48:02.978Z,99977.35
2022-08-10T04:51:06.342Z,99993.70
2022-08-10T04:54:15.817Z,99987.46
2022-08-10T04:57:21.330Z,99981.76
2022-08-10T05:00:22.175Z,99980.51
2022-08-10T05:03:28.558Z,99992.02
2022-08-10T05:06:34.483Z,99984.52
2022-08-10T05:10:04.203Z,99985.59
2022-08-10T05:12:48.933Z,99981.41
2022-08-10T05:15:58.300Z,99991.05
2022-08-10T05:18:58.432Z,99992.56
2022-08-10T05:22:05.148Z,99988.49
2022-08-10T05:25:10.734Z,99984.09
2022-08-10T05:28:17.300Z,99993.69
2022-08-10T05:31:24.214Z,99992.34
2022-08-10T05:34:35.406Z,99988.98
2022-08-10T05:38:09.692Z,99986.50
2022-08-10T05:40:47.882Z,99984.27
2022-08-10T05:43:53.373Z,99983.45
2022-08-10T05:46:59.652Z,99983.45
2022-08-10T05:50:05.258Z,99979.54
2022-08-10T05:53:58.736Z,99977.27
2022-08-10T05:56:21.520Z,99981.47
2022-08-10T06:00:31.038Z,99986.52
2022-08-10T06:02:44.888Z,99975.62
2022-08-10T06:05:51.811Z,99973.95
2022-08-10T06:08:57.334Z,99990.73
2022-08-10T06:12:24.023Z,99984.86
2022-08-10T06:15:21.275Z,99986.57
2022-08-10T06:18:19.841Z,99991.29
2022-08-10T06:21:25.983Z,99982.30
2022-08-10T06:24:32.583Z,99987.84
2022-08-10T06:27:39.046Z,99976.38
2022-08-10T06:30:44.525Z,99975.47
2022-08-10T06:33:46.127Z,99972.62
2022-08-10T06:36:52.132Z,99971.73
2022-08-10T06:39:58.508Z,99975.34
2022-08-10T06:43:03.942Z,99973.61
2022-08-10T06:46:25.537Z,99971.70
2022-08-10T06:49:31.143Z,99980.38
2022-08-10T06:52:38.427Z,99980.65
2022-08-10T06:55:55.677Z,99979.81
2022-08-10T06:59:21.141Z,99981.16
2022-08-10T07:02:35.100Z,99982.48
2022-08-10T07:05:46.872Z,99987.15
2022-08-10T07:08:50.072Z,99980.93
2022-08-10T07:11:57.389Z,99977.51
2022-08-10T07:15:04.830Z,99977.63
2022-08-10T07:18:02.957Z,99980.99
2022-08-10T07:20:55.688Z,99968.52
2022-08-10T07:24:02.928Z,99973.88
2022-08-10T07:27:10.611Z,99980.37
2022-08-10T07:30:15.497Z,99974.81
2022-08-10T07:33:16.093Z,99979.49
2022-08-10T07:36:23.467Z,99980.31
2022-08-10T07:40:02.936Z,99988.36
2022-08-10T07:42:39.880Z,99983.80
2022-08-10T07:45:47.654Z,99977.41
2022-08-10T07:49:00.193Z,99987.87
2022-08-10T07:52:06.465Z,99984.78
2022-08-10T07:55:12.553Z,99979.22
2022-08-10T07:58:17.834Z,99968.97
2022-08-10T08:01:23.382Z,99979.20
2022-08-10T08:04:29.807Z,99967.55
2022-08-10T08:07:36.212Z,99984.07
2022-08-10T08:10:42.950Z,99977.21
2022-08-10T08:13:48.823Z,99978.10
2022-08-10T08:16:59.363Z,99964.22
2022-08-10T08:20:05.264Z,99974.73
2022-08-10T08:24:09.713Z,99973.42
2022-08-10T08:26:19.837Z,99966.16
2022-08-10T08:29:26.773Z,99966.98
2022-08-10T08:32:37.821Z,99967.05
2022-08-10T08:35:44.211Z,99966.23
2022-08-10T08:38:50.987Z,99960.84
2022-08-10T08:42:04.410Z,99960.81
2022-08-10T08:46:00.324Z,99959.59
2022-08-10T08:49:11.320Z,99961.98
2022-08-10T08:52:33.307Z,99960.58
2022-08-10T08:56:09.167Z,99957.59
2022-08-10T08:59:34.841Z,99967.92
2022-08-10T09:03:27.544Z,99967.92
2022-08-10T09:06:49.051Z,99960.21
2022-08-10T09:10:27.871Z,99956.11
2022-08-10T09:13:46.618Z,99952.98
2022-08-10T09:17:17.164Z,99937.30
2022-08-10T09:20:45.256Z,99939.72
2022-08-10T09:24:09.102Z,99939.72
2022-08-10T09:27:19.884Z,99937.16
2022-08-10T09:30:29.629Z,99940.95
2022-08-10T09:36:24.242Z,99941.86
2022-08-10T09:37:17.832Z,99943.16
2022-08-10T09:41:01.100Z,99938.42
2022-08-10T09:44:18.088Z,99930.94
2022-08-10T09:48:08.048Z,99934.09
2022-08-10T09:51:52.066Z,99926.80
2022-08-10T09:55:05.386Z,99921.06
2022-08-10T09:58:31.337Z,99922.93
2022-08-10T10:02:04.171Z,99924.60
2022-08-10T10:05:24.184Z,99928.74
2022-08-10T10:09:10.358Z,99921.56
2022-08-10T10:12:44.193Z,99927.09
2022-08-10T10:16:02.196Z,99914.84
2022-08-10T10:19:24.005Z,99913.34
2022-08-10T10:22:46.580Z,99912.47
2022-08-10T10:26:10.530Z,99904.02
2022-08-10T10:29:56.394Z,99903.51
2022-08-10T10:33:18.902Z,99909.14
2022-08-10T10:36:26.039Z,99907.87
2022-08-10T10:39:32.095Z,99917.92
2022-08-10T10:42:48.518Z,99905.54
2022-08-10T10:46:31.199Z,99907.56
2022-08-10T10:50:14.356Z,99909.02
2022-08-10T10:53:45.942Z,99905.67
2022-08-10T10:57:18.318Z,99902.69
2022-08-10T11:00:24.547Z,99896.88
2022-08-10T11:03:53.061Z,99900.91
2022-08-10T11:07:33.809Z,99896.82
2022-08-10T11:11:03.713Z,99898.81
2022-08-10T11:14:56.152Z,99893.72
2022-08-10T11:18:14.991Z,99888.45
2022-08-10T11:21:48.824Z,99883.47
2022-08-10T11:25:04.729Z,99869.34
2022-08-10T11:28:34.121Z,99871.03
2022-08-10T11:31:56.143Z,99878.00
2022-08-10T11:35:21.384Z,99858.70
2022-08-10T11:39:04.009Z,99863.59
2022-08-10T11:42:07.692Z,99863.68
2022-08-10T11:45:20.458Z,99857.72
2022-08-10T11:48:53.853Z,99851.51
2022-08-10T11:51:51.458Z,99860.97
2022-08-10T11:55:08.188Z,99846.45
2022-08-10T11:58:36.518Z,99845.14
2022-08-10T12:01:45.942Z,99838.81
2022-08-10T12:04:55.203Z,99833.84
2022-08-10T12:08:55.032Z,99838.20
2022-08-10T12:11:18.169Z,99835.42
2022-08-10T12:14:40.237Z,99842.42
2022-08-10T12:17:59.604Z,99833.39
2022-08-10T12:21:07.692Z,99831.57
2022-08-10T12:24:17.935Z,99824.62
2022-08-10T12:27:47.495Z,99834.45
2022-08-10T12:30:56.833Z,99823.06
2022-08-10T12:34:19.479Z,99824.80
2022-08-10T12:38:04.875Z,99826.66
2022-08-10T12:41:15.647Z,99824.98
2022-08-10T12:44:24.514Z,99815.03
2022-08-10T12:47:56.895Z,99826.84
2022-08-10T12:51:16.076Z,99826.75
2022-08-10T12:54:32.022Z,99820.33
2022-08-10T12:57:39.676Z,99819.69
2022-08-10T13:01:12.766Z,99830.59
2022-08-10T13:04:22.736Z,99812.53
2022-08-10T13:07:02.234Z,99817.87
2022-08-10T13:10:07.088Z,99813.36
2022-08-10T13:13:12.182Z,99809.98
2022-08-10T13:16:18.041Z,99814.77
2022-08-10T13:19:23.417Z,99808.05
2022-08-10T13:22:30.455Z,99813.30
2022-08-10T13:25:43.941Z,99806.05
2022-08-10T13:29:01.804Z,99796.31
2022-08-10T13:32:09.829Z,99791.92
2022-08-10T13:35:26.056Z,99800.58
2022-08-10T13:38:34.341Z,99797.94
2022-08-10T13:41:47.584Z,99799.86
2022-08-10T13:45:03.574Z,99806.88
2022-08-10T13:48:40.340Z,99799.06
2022-08-10T13:51:53.658Z,99794.05
2022-08-10T13:54:54.576Z,99811.55
2022-08-10T13:58:07.471Z,99801.32
2022-08-10T14:01:15.577Z,99808.69
2022-08-10T14:04:19.698Z,99801.01
2022-08-10T14:07:26.823Z,99799.19
2022-08-10T14:11:08.892Z,99799.59
2022-08-10T14:13:41.256Z,99792.42
2022-08-10T14:16:47.567Z,99788.67
2022-08-10T14:19:59.325Z,99789.21
2022-08-10T14:23:02.226Z,99788.91
2022-08-10T14:26:16.023Z,99791.35
2022-08-10T14:29:25.290Z,99786.87
2022-08-10T14:32:31.614Z,99793.09
2022-08-10T14:36:23.338Z,99776.84
2022-08-10T14:38:19.268Z,99773.05
2022-08-10T14:42:02.717Z,99775.48
2022-08-10T14:44:24.217Z,99779.63
2022-08-10T14:47:53.745Z,99773.59
2022-08-10T14:50:38.596Z,99776.27
2022-08-10T14:53:48.668Z,99766.27
2022-08-10T14:56:55.275Z,99777.91
2022-08-10T15:00:24.669Z,99774.80
2022-08-10T15:03:11.155Z,99780.78
2022-08-10T15:06:17.022Z,99781.81
2022-08-10T15:09:28.492Z,99783.18
2022-08-10T15:12:36.764Z,99774.27
2022-08-10T15:16:01.960Z,99768.91
2022-08-10T15:18:58.516Z,99796.99
2022-08-10T15:22:01.257Z,99763.79
2022-08-10T15:25:17.838Z,99763.79
2022-08-10T15:28:23.674Z,99769.12
2022-08-10T15:31:35.636Z,99774.07
2022-08-10T15:34:57.744Z,99765.21
2022-08-10T15:38:02.813Z,99777.25
2022-08-10T15:41:11.366Z,99776.15
2022-08-10T15:44:15.990Z,99778.89
2022-08-10T15:47:45.027Z,99774.58
2022-08-10T15:50:49.328Z,99774.83
2022-08-10T15:54:02.239Z,99770.87
2022-08-10T15:57:08.314Z,99770.87
2022-08-10T16:00:23.824Z,99774.64
2022-08-10T16:03:41.905Z,99782.73
2022-08-10T16:06:53.663Z,99787.69
2022-08-10T16:10:23.425Z,99793.79
2022-08-10T16:13:50.603Z,99787.24
2022-08-10T16:16:28.124Z,99792.69
2022-08-10T16:19:35.041Z,99792.69
2022-08-10T16:22:46.184Z,99794.69
2022-08-10T16:25:58.102Z,99794.69
2022-08-10T16:29:55.929Z,99792.00
2022-08-10T16:32:46.624Z,99790.23
2022-08-10T16:35:53.270Z,99800.52
2022-08-10T16:38:54.855Z,99793.93
2022-08-10T16:42:04.389Z,99791.27
2022-08-10T16:44:43.421Z,99792.27
2022-08-10T16:47:32.101Z,99789.02
2022-08-10T16:50:31.554Z,99795.02
2022-08-10T16:53:22.926Z,99792.36
2022-08-10T16:56:17.229Z,99786.98
2022-08-10T16:59:10.485Z,99791.61
2022-08-10T17:02:17.957Z,99792.44
2022-08-10T17:06:01.419Z,99783.87
2022-08-10T17:08:32.801Z,99786.27
2022-08-10T17:11:45.802Z,99783.02
2022-08-10T17:15:09.108Z,99783.91
2022-08-10T17:18:03.763Z,99780.87
2022-08-10T17:21:05.650Z,99780.48
2022-08-10T17:24:01.130Z,99790.66
2022-08-10T17:28:05.263Z,99788.73
2022-08-10T17:30:15.814Z,99788.30
2022-08-10T17:33:27.336Z,99796.20
2022-08-10T17:36:33.471Z,99797.61
2022-08-10T17:39:52.439Z,99793.80
2022-08-10T17:43:02.611Z,99799.72
2022-08-10T17:46:07.934Z,99794.78
2022-08-10T17:49:13.054Z,99796.50
2022-08-10T17:52:21.590Z,99801.27
2022-08-10T17:55:26.899Z,99792.60
2022-08-10T17:58:34.422Z,99802.36
2022-08-10T18:01:58.948Z,99792.81
2022-08-10T18:04:54.067Z,99784.81
2022-08-10T18:08:05.818Z,99803.66
2022-08-10T18:11:12.964Z,99799.76
2022-08-10T18:14:21.734Z,99798.06
2022-08-10T18:17:31.386Z,99795.63
2022-08-10T18:20:38.629Z,99795.92
2022-08-10T18:23:44.715Z,99802.45
2022-08-10T18:26:55.360Z,99798.56
2022-08-10T18:30:06.288Z,99795.80
2022-08-10T18:33:12.650Z,99795.53
2022-08-10T18:36:13.394Z,99787.66
2022-08-10T18:39:08.090Z,99786.51
2022-08-10T18:42:36.904Z,99794.92
2022-08-10T18:45:44.848Z,99785.98
2022-08-10T18:49:13.286Z,99783.23
2022-08-10T18:52:23.206Z,99788.08
2022-08-10T18:56:09.808Z,99786.75
2022-08-10T18:58:58.470Z,99777.78
2022-08-10T19:02:46.629Z,99780.58
2022-08-10T19:06:15.442Z,99766.30
2022-08-10T19:10:08.026Z,99766.30
2022-08-10T19:13:58.361Z,99780.11
2022-08-10T19:17:22.364Z,99773.17
2022-08-10T19:20:42.403Z,99764.47
2022-08-10T19:24:20.119Z,99772.87
2022-08-10T19:27:48.743Z,99762.53
2022-08-10T19:31:13.821Z,99769.30
2022-08-10T19:34:48.283Z,99764.02
2022-08-10T19:38:16.929Z,99758.42
2022-08-10T19:41:45.012Z,99755.69
2022-08-10T19:45:55.491Z,99745.94
2022-08-10T19:48:59.818Z,99749.87
2022-08-10T19:52:17.560Z,99749.03
2022-08-10T19:56:13.374Z,99747.64
2022-08-10T19:59:15.574Z,99741.50
2022-08-10T20:02:23.741Z,99744.53
2022-08-10T20:06:18.099Z,99735.33
2022-08-10T20:09:20.680Z,99737.21
2022-08-10T20:12:43.220Z,99736.11
2022-08-10T20:16:04.771Z,99728.56
2022-08-10T20:19:13.395Z,99734.72
2022-08-10T20:22:29.457Z,99731.36
2022-08-10T20:25:44.367Z,99733.06
2022-08-10T20:28:58.173Z,99722.43
2022-08-10T20:32:20.562Z,99719.92
2022-08-10T20:35:57.036Z,99727.16
2022-08-10T20:39:34.823Z,99723.23
2022-08-10T20:42:53.795Z,99722.68
2022-08-10T20:46:19.660Z,99723.76
2022-08-10T20:49:57.616Z,99724.30
2022-08-10T20:53:05.293Z,99731.86
2022-08-10T20:56:41.476Z,99717.42
2022-08-10T21:00:02.350Z,99723.55
2022-08-10T21:03:42.768Z,99719.09
2022-08-10T21:07:28.506Z,99709.61
2022-08-10T21:10:53.453Z,99703.41
2022-08-10T21:14:21.868Z,99702.03
2022-08-10T21:17:52.609Z,99703.73
2022-08-10T21:21:44.872Z,99700.37
2022-08-10T21:25:19.770Z,99693.42
2022-08-10T21:28:30.679Z,99692.62
2022-08-10T21:32:00.828Z,99686.78
2022-08-10T21:35:36.835Z,99682.31
2022-08-10T21:38:44.536Z,99682.61
2022-08-10T21:42:16.830Z,99680.09
2022-08-10T21:46:29.047Z,99674.23
2022-08-10T21:50:30.199Z,99663.61
2022-08-10T21:54:01.043Z,99670.33
2022-08-10T21:57:43.017Z,99667.81
2022-08-10T22:00:56.871Z,99662.23
2022-08-10T22:04:19.952Z,99668.39
2022-08-10T22:07:43.824Z,99664.48
2022-08-10T22:11:07.197Z,99659.17
2022-08-10T22:14:33.703Z,99656.11
2022-08-10T22:18:04.751Z,99658.06
2022-08-10T22:21:29.395Z,99657.52
2022-08-10T22:24:57.877Z,99657.24
2022-08-10T22:28:25.392Z,99657.76
2022-08-10T22:31:57.430Z,99652.17
2022-08-10T22:36:11.928Z,99655.48
2022-08-10T22:40:07.147Z,99648.80
2022-08-10T22:43:36.316Z,99645.71
2022-08-10T22:46:59.127Z,99648.51
2022-08-10T22:50:10.465Z,99641.53
2022-08-10T22:53:21.912Z,99636.53
2022-08-10T22:56:45.122Z,99640.98
2022-08-10T22:59:50.778Z,99642.36
2022-08-10T23:03:28.452Z,99646.80
2022-08-10T23:06:36.099Z,99645.94
2022-08-10T23:09:42.352Z,99649.59
2022-08-10T23:13:06.040Z,99644.26
2022-08-10T23:16:33.013Z,99645.91
2022-08-10T23:19:41.066Z,99646.48
2022-08-10T23:22:56.683Z,99645.91
2022-08-10T23:26:04.126Z,99638.66
2022-08-10T23:29:12.493Z,99634.19
2022-08-10T23:32:17.931Z,99637.84
2022-08-10T23:36:30.662Z,99633.06
2022-08-10T23:38:45.566Z,99636.91
2022-08-10T23:41:53.148Z,99631.91
2022-08-10T23:45:08.081Z,99629.64
2022-08-10T23:48:15.576Z,99630.50
2022-08-10T23:51:26.126Z,99629.63
2022-08-10T23:54:33.213Z,99625.75
2022-08-10T23:57:41.099Z,99624.34
